Petrified Forest National Park, AZ

9:30 PM MST on September 02, 2015 (GMT -0700)
Torreon | | Change Station
CLOSE
Current Station
Personal Weather Station
Location: Show Low, AZ
Elevation: 6391 ft
Nearby Weather Stations

Elev 6391 ft 34.25 °N, 110.09 °W | Updated 13 minutes ago

Partly Cloudy
Partly Cloudy
62.1 °F
Feels Like 62.1 °F
N
1.0
Wind Variable Wind from SW
Gusts 3.0 mph

Today
High -- | Low -- °F
--% Chance of Precip.
Yesterday
High -- | Low -- °F
Precip. -- in
5:54 AM 6:45 PM
Waning Gibbous, 74% visible
Pressure 30.27 in
Visibility 10.0 miles
Clouds Clear
Dew Point 52 °F
Humidity 69%
Rainfall 0.00 in
Snow Depth Not available.
UV 0 out of 12
Pollen 6.00 out of 12
Air Quality Not available.
Flu Activity Not available.
METAR KSOW 030415Z AUTO 19004KT 10SM CLR 15/09 A3027 RMK AO2
Pressure 30.27 in
Visibility 10.0 miles
Clouds Clear
Dew Point 52 °F
Humidity 69%
Rainfall 0.00 in
Snow Depth Not available.
UV 0 out of 12
Pollen 6.00 out of 12
Air Quality Not available.
Flu Activity Not available.
METAR KSOW 030415Z AUTO 19004KT 10SM CLR 15/09 A3027 RMK AO2

10-Day Weather Forecast

×

Almanac

Astronomy

Sep. 02, 2015 Rise Set
Actual Time
Civil Twilight
Nautical Twilight
Astronomical Twilight
Moon
Length of Visible Light
Length of Day
Tomorrow will be .
, % of the Moon is Illuminated

Today's Extremes

State Highs State Lows

Community

WunderPhotos

Upload Photos

1,851,913 photos uploaded!

WunderBlogs® & News

Nearby

Air Quality

  Air Quality AQ Index Pollutant
Not available.

Snow Depth

Station Depth Elevation

Earthquake Activity

City Distance Mag. Time & Date
Minimum magnitude displayed is 2.5.

Coastal Water Temperatures

Place Temperature

Stations

Nearby Weather Stations

Station Location Temp. Windchill Dew Point Humidity Wind Precip. Elev Updated Type